sensor_id;sensor_type;location;lat;lon;timestamp;pressure;altitude;pressure_sealevel;temperature;humidity
49813;BME280;35706;52.100;5.056;2022-11-25T00:00:21;100948.16;;;9.07;95.80
49813;BME280;35706;52.100;5.056;2022-11-25T00:01:24;100960.09;;;9.00;96.42
49813;BME280;35706;52.100;5.056;2022-11-25T00:02:25;100931.38;;;8.98;96.50
49813;BME280;35706;52.100;5.056;2022-11-25T00:03:25;100945.28;;;9.10;96.27
49813;BME280;35706;52.100;5.056;2022-11-25T00:04:25;100945.75;;;9.04;96.18
49813;BME280;35706;52.100;5.056;2022-11-25T00:05:28;100934.66;;;9.11;96.13
49813;BME280;35706;52.100;5.056;2022-11-25T00:06:30;100944.56;;;9.08;96.56
49813;BME280;35706;52.100;5.056;2022-11-25T00:07:34;100951.00;;;9.04;96.74
49813;BME280;35706;52.100;5.056;2022-11-25T00:08:35;100931.38;;;8.98;97.22
49813;BME280;35706;52.100;5.056;2022-11-25T00:09:35;100945.41;;;9.08;96.92
49813;BME280;35706;52.100;5.056;2022-11-25T00:10:36;100939.13;;;9.00;97.53
49813;BME280;35706;52.100;5.056;2022-11-25T00:11:38;100929.34;;;9.02;97.65
49813;BME280;35706;52.100;5.056;2022-11-25T00:12:39;100922.53;;;8.99;97.68
49813;BME280;35706;52.100;5.056;2022-11-25T00:13:40;100935.78;;;8.98;97.85
49813;BME280;35706;52.100;5.056;2022-11-25T00:14:40;100929.59;;;8.99;97.92
49813;BME280;35706;52.100;5.056;2022-11-25T00:15:41;100915.00;;;9.06;97.89
49813;BME280;35706;52.100;5.056;2022-11-25T00:16:41;100928.00;;;9.07;97.64
49813;BME280;35706;52.100;5.056;2022-11-25T00:17:42;100917.13;;;9.12;97.73
49813;BME280;35706;52.100;5.056;2022-11-25T00:18:47;100923.09;;;9.14;97.11
49813;BME280;35706;52.100;5.056;2022-11-25T00:19:48;100928.00;;;9.07;97.58
49813;BME280;35706;52.100;5.056;2022-11-25T00:20:49;100932.66;;;9.04;98.07
49813;BME280;35706;52.100;5.056;2022-11-25T00:21:50;100937.41;;;9.10;97.64
49813;BME280;35706;52.100;5.056;2022-11-25T00:22:50;100929.81;;;9.07;97.81
49813;BME280;35706;52.100;5.056;2022-11-25T00:23:55;100928.97;;;9.06;98.16
49813;BME280;35706;52.100;5.056;2022-11-25T00:24:56;100916.03;;;8.93;98.75
49813;BME280;35706;52.100;5.056;2022-11-25T00:25:56;100919.09;;;8.99;98.86
49813;BME280;35706;52.100;5.056;2022-11-25T00:26:56;100920.41;;;8.93;99.07
49813;BME280;35706;52.100;5.056;2022-11-25T00:27:57;100912.75;;;9.01;98.90
49813;BME280;35706;52.100;5.056;2022-11-25T00:28:59;100917.41;;;9.09;98.57
49813;BME280;35706;52.100;5.056;2022-11-25T00:30:00;100918.38;;;8.96;99.09
49813;BME280;35706;52.100;5.056;2022-11-25T00:31:08;100924.59;;;8.95;98.94
49813;BME280;35706;52.100;5.056;2022-11-25T00:32:09;100918.88;;;8.90;99.30
49813;BME280;35706;52.100;5.056;2022-11-25T00:33:09;100925.31;;;8.86;99.81
49813;BME280;35706;52.100;5.056;2022-11-25T00:34:11;100930.94;;;8.82;100.00
49813;BME280;35706;52.100;5.056;2022-11-25T00:35:12;100919.81;;;9.01;99.48
49813;BME280;35706;52.100;5.056;2022-11-25T00:36:13;100921.84;;;8.97;99.33
49813;BME280;35706;52.100;5.056;2022-11-25T00:37:14;100919.22;;;8.97;99.50
49813;BME280;35706;52.100;5.056;2022-11-25T00:38:15;100917.78;;;8.93;99.93
49813;BME280;35706;52.100;5.056;2022-11-25T00:39:16;100919.47;;;8.94;99.80
49813;BME280;35706;52.100;5.056;2022-11-25T00:40:17;100914.19;;;9.05;99.58
49813;BME280;35706;52.100;5.056;2022-11-25T00:41:17;100908.56;;;9.10;99.16
49813;BME280;35706;52.100;5.056;2022-11-25T00:42:36;100914.19;;;9.05;99.30
49813;BME280;35706;52.100;5.056;2022-11-25T00:43:55;100908.13;;;9.05;98.87
49813;BME280;35706;52.100;5.056;2022-11-25T00:45:14;100911.94;;;9.01;99.62
49813;BME280;35706;52.100;5.056;2022-11-25T00:46:14;100910.56;;;8.85;100.00
49813;BME280;35706;52.100;5.056;2022-11-25T00:47:19;100914.94;;;8.96;100.00
49813;BME280;35706;52.100;5.056;2022-11-25T00:48:19;100907.66;;;9.00;100.00
49813;BME280;35706;52.100;5.056;2022-11-25T00:49:20;100912.31;;;8.96;99.84
49813;BME280;35706;52.100;5.056;2022-11-25T00:50:20;100897.88;;;9.02;99.86
49813;BME280;35706;52.100;5.056;2022-11-25T00:51:20;100899.81;;;9.00;99.90
49813;BME280;35706;52.100;5.056;2022-11-25T00:52:23;100915.06;;;8.94;100.00
49813;BME280;35706;52.100;5.056;2022-11-25T00:53:24;100915.06;;;8.94;100.00
49813;BME280;35706;52.100;5.056;2022-11-25T00:54:24;100916.84;;;8.94;100.00
49813;BME280;35706;52.100;5.056;2022-11-25T00:55:24;100913.25;;;8.95;100.00
49813;BME280;35706;52.100;5.056;2022-11-25T00:56:45;100905.41;;;8.95;100.00
49813;BME280;35706;52.100;5.056;2022-11-25T00:57:45;100905.03;;;9.00;99.91
49813;BME280;35706;52.100;5.056;2022-11-25T00:58:45;100908.59;;;8.99;100.00
49813;BME280;35706;52.100;5.056;2022-11-25T00:59:46;100911.84;;;8.91;100.00
49813;BME280;35706;52.100;5.056;2022-11-25T01:00:46;100912.44;;;8.94;100.00
49813;BME280;35706;52.100;5.056;2022-11-25T01:01:46;100903.47;;;8.97;100.00
49813;BME280;35706;52.100;5.056;2022-11-25T01:02:47;100911.00;;;9.02;100.00
49813;BME280;35706;52.100;5.056;2022-11-25T01:03:48;100909.66;;;9.07;100.00
49813;BME280;35706;52.100;5.056;2022-11-25T01:04:49;100913.16;;;8.96;100.00
49813;BME280;35706;52.100;5.056;2022-11-25T01:05:49;100917.94;;;8.91;100.00
49813;BME280;35706;52.100;5.056;2022-11-25T01:06:49;100918.00;;;9.01;100.00
49813;BME280;35706;52.100;5.056;2022-11-25T01:07:50;100918.38;;;8.96;100.00
49813;BME280;35706;52.100;5.056;2022-11-25T01:08:50;100925.53;;;8.94;100.00
49813;BME280;35706;52.100;5.056;2022-11-25T01:09:50;100918.06;;;8.90;100.00
49813;BME280;35706;52.100;5.056;2022-11-25T01:11:00;100924.00;;;8.92;100.00
49813;BME280;35706;52.100;5.056;2022-11-25T01:12:01;100913.25;;;8.95;100.00
49813;BME280;35706;52.100;5.056;2022-11-25T01:13:01;100920.03;;;9.09;100.00
49813;BME280;35706;52.100;5.056;2022-11-25T01:14:02;100916.09;;;9.03;100.00
49813;BME280;35706;52.100;5.056;2022-11-25T01:15:02;100920.06;;;8.98;100.00
49813;BME280;35706;52.100;5.056;2022-11-25T01:16:03;100922.09;;;8.94;100.00
49813;BME280;35706;52.100;5.056;2022-11-25T01:17:04;100924.72;;;8.94;100.00
49813;BME280;35706;52.100;5.056;2022-11-25T01:18:05;100927.63;;;9.12;100.00
49813;BME280;35706;52.100;5.056;2022-11-25T01:19:05;100924.94;;;9.02;100.00
49813;BME280;35706;52.100;5.056;2022-11-25T01:20:06;100926.84;;;9.00;100.00
49813;BME280;35706;52.100;5.056;2022-11-25T01:21:07;100919.69;;;9.02;100.00
49813;BME280;35706;52.100;5.056;2022-11-25T01:22:08;100933.25;;;9.07;100.00
49813;BME280;35706;52.100;5.056;2022-11-25T01:23:08;100931.97;;;9.02;100.00
49813;BME280;35706;52.100;5.056;2022-11-25T01:24:11;100933.25;;;9.07;100.00
49813;BME280;35706;52.100;5.056;2022-11-25T01:25:12;100928.38;;;9.03;100.00
49813;BME280;35706;52.100;5.056;2022-11-25T01:26:15;100941.13;;;9.07;100.00
49813;BME280;35706;52.100;5.056;2022-11-25T01:27:15;100929.41;;;9.11;100.00
49813;BME280;35706;52.100;5.056;2022-11-25T01:28:16;100945.66;;;9.05;100.00
49813;BME280;35706;52.100;5.056;2022-11-25T01:29:17;100948.91;;;8.98;100.00
49813;BME280;35706;52.100;5.056;2022-11-25T01:30:18;100945.09;;;8.90;100.00
49813;BME280;35706;52.100;5.056;2022-11-25T01:31:20;100953.28;;;8.97;100.00
49813;BME280;35706;52.100;5.056;2022-11-25T01:32:20;100950.44;;;8.89;100.00
49813;BME280;35706;52.100;5.056;2022-11-25T01:33:20;100947.00;;;8.88;100.00
49813;BME280;35706;52.100;5.056;2022-11-25T01:34:23;100949.06;;;8.85;100.00
49813;BME280;35706;52.100;5.056;2022-11-25T01:35:24;100959.72;;;8.93;100.00
49813;BME280;35706;52.100;5.056;2022-11-25T01:36:24;100956.06;;;8.95;100.00
49813;BME280;35706;52.100;5.056;2022-11-25T01:37:25;100949.72;;;8.98;100.00
49813;BME280;35706;52.100;5.056;2022-11-25T01:38:25;100950.66;;;9.08;100.00
49813;BME280;35706;52.100;5.056;2022-11-25T01:39:25;100951.97;;;9.03;100.00
49813;BME280;35706;52.100;5.056;2022-11-25T01:40:26;100957.94;;;9.05;100.00
49813;BME280;35706;52.100;5.056;2022-11-25T01:41:29;100963.19;;;9.05;100.00
49813;BME280;35706;52.100;5.056;2022-11-25T01:42:29;100959.13;;;9.01;100.00
49813;BME280;35706;52.100;5.056;2022-11-25T01:43:30;100962.13;;;8.96;100.00
49813;BME280;35706;52.100;5.056;2022-11-25T01:44:31;100950.78;;;9.07;100.00
49813;BME280;35706;52.100;5.056;2022-11-25T01:45:35;100967.72;;;9.03;100.00
49813;BME280;35706;52.100;5.056;2022-11-25T01:47:45;100963.94;;;8.95;100.00
49813;BME280;35706;52.100;5.056;2022-11-25T01:48:53;100957.25;;;8.91;100.00
49813;BME280;35706;52.100;5.056;2022-11-25T01:50:02;100967.47;;;8.94;100.00
49813;BME280;35706;52.100;5.056;2022-11-25T01:51:04;100970.94;;;8.95;100.00
49813;BME280;35706;52.100;5.056;2022-11-25T01:52:29;100960.09;;;9.00;100.00
49813;BME280;35706;52.100;5.056;2022-11-25T01:53:31;100956.78;;;8.98;100.00
49813;BME280;35706;52.100;5.056;2022-11-25T01:54:37;100956.06;;;8.95;100.00
49813;BME280;35706;52.100;5.056;2022-11-25T01:55:42;100958.66;;;9.07;100.00
49813;BME280;35706;52.100;5.056;2022-11-25T01:57:02;100958.88;;;9.04;100.00
49813;BME280;35706;52.100;5.056;2022-11-25T01:58:08;100972.13;;;9.02;100.00
49813;BME280;35706;52.100;5.056;2022-11-25T01:59:12;100962.34;;;8.93;100.00
49813;BME280;35706;52.100;5.056;2022-11-25T02:00:13;100964.16;;;8.92;100.00
49813;BME280;35706;52.100;5.056;2022-11-25T02:01:14;100958.78;;;8.94;100.00
49813;BME280;35706;52.100;5.056;2022-11-25T02:02:16;100958.69;;;8.95;100.00
49813;BME280;35706;52.100;5.056;2022-11-25T02:03:19;100962.84;;;8.98;100.00
49813;BME280;35706;52.100;5.056;2022-11-25T02:04:24;100952.00;;;8.91;100.00
49813;BME280;35706;52.100;5.056;2022-11-25T02:05:48;100969.50;;;8.91;100.00
49813;BME280;35706;52.100;5.056;2022-11-25T02:06:55;100956.28;;;8.92;100.00
49813;BME280;35706;52.100;5.056;2022-11-25T02:07:57;100956.88;;;8.96;100.00
49813;BME280;35706;52.100;5.056;2022-11-25T02:09:02;100953.88;;;9.01;100.00
49813;BME280;35706;52.100;5.056;2022-11-25T02:10:06;100953.44;;;8.95;100.00
49813;BME280;35706;52.100;5.056;2022-11-25T02:11:07;100954.47;;;9.04;100.00
49813;BME280;35706;52.100;5.056;2022-11-25T02:12:08;100954.00;;;8.99;100.00
49813;BME280;35706;52.100;5.056;2022-11-25T02:13:10;100960.44;;;8.95;100.00
49813;BME280;35706;52.100;5.056;2022-11-25T02:14:12;100958.19;;;8.90;100.00
49813;BME280;35706;52.100;5.056;2022-11-25T02:15:14;100955.13;;;8.85;100.00
49813;BME280;35706;52.100;5.056;2022-11-25T02:16:14;100949.88;;;8.85;100.00
49813;BME280;35706;52.100;5.056;2022-11-25T02:17:15;100959.41;;;8.86;100.00
49813;BME280;35706;52.100;5.056;2022-11-25T02:18:15;100954.88;;;8.88;100.00
49813;BME280;35706;52.100;5.056;2022-11-25T02:19:35;100953.56;;;8.94;100.00
49813;BME280;35706;52.100;5.056;2022-11-25T02:20:37;100940.41;;;9.05;100.00
49813;BME280;35706;52.100;5.056;2022-11-25T02:21:45;100941.00;;;9.09;100.00
49813;BME280;35706;52.100;5.056;2022-11-25T02:23:02;100930.84;;;9.15;100.00
49813;BME280;35706;52.100;5.056;2022-11-25T02:24:14;100922.16;;;9.15;100.00
49813;BME280;35706;52.100;5.056;2022-11-25T02:25:43;100922.25;;;9.13;100.00
49813;BME280;35706;52.100;5.056;2022-11-25T02:26:44;100938.16;;;9.01;100.00
49813;BME280;35706;52.100;5.056;2022-11-25T02:27:47;100945.31;;;8.99;100.00
49813;BME280;35706;52.100;5.056;2022-11-25T02:28:49;100955.31;;;9.05;100.00
49813;BME280;35706;52.100;5.056;2022-11-25T02:29:50;100954.47;;;9.04;100.00
49813;BME280;35706;52.100;5.056;2022-11-25T02:30:51;100960.22;;;8.98;100.00
49813;BME280;35706;52.100;5.056;2022-11-25T02:31:51;100960.44;;;9.06;100.00
49813;BME280;35706;52.100;5.056;2022-11-25T02:32:52;100962.47;;;9.03;100.00
49813;BME280;35706;52.100;5.056;2022-11-25T02:33:52;100962.25;;;8.94;100.00
49813;BME280;35706;52.100;5.056;2022-11-25T02:34:52;100968.56;;;8.92;100.00
49813;BME280;35706;52.100;5.056;2022-11-25T02:35:56;100964.16;;;8.92;100.00
49813;BME280;35706;52.100;5.056;2022-11-25T02:36:58;100952.25;;;9.00;100.00
49813;BME280;35706;52.100;5.056;2022-11-25T02:38:09;100952.25;;;9.00;100.00
49813;BME280;35706;52.100;5.056;2022-11-25T02:39:11;100949.03;;;8.96;100.00
49813;BME280;35706;52.100;5.056;2022-11-25T02:40:13;100947.81;;;9.00;100.00
49813;BME280;35706;52.100;5.056;2022-11-25T02:41:17;100948.53;;;9.02;100.00
49813;BME280;35706;52.100;5.056;2022-11-25T02:42:20;100944.94;;;9.03;100.00
49813;BME280;35706;52.100;5.056;2022-11-25T02:43:21;100945.03;;;9.13;100.00
49813;BME280;35706;52.100;5.056;2022-11-25T02:44:22;100946.13;;;8.99;100.00
49813;BME280;35706;52.100;5.056;2022-11-25T02:45:30;100945.44;;;8.97;100.00
49813;BME280;35706;52.100;5.056;2022-11-25T02:46:33;100939.72;;;8.92;100.00
49813;BME280;35706;52.100;5.056;2022-11-25T02:47:33;100949.03;;;8.96;100.00
49813;BME280;35706;52.100;5.056;2022-11-25T02:48:35;100949.03;;;8.96;100.00
49813;BME280;35706;52.100;5.056;2022-11-25T02:49:36;100943.88;;;8.94;100.00
49813;BME280;35706;52.100;5.056;2022-11-25T02:50:37;100949.25;;;9.04;100.00
49813;BME280;35706;52.100;5.056;2022-11-25T02:51:39;100955.81;;;8.99;100.00
49813;BME280;35706;52.100;5.056;2022-11-25T02:52:40;100955.53;;;9.13;100.00
49813;BME280;35706;52.100;5.056;2022-11-25T02:53:41;100958.66;;;9.07;100.00
49813;BME280;35706;52.100;5.056;2022-11-25T02:54:41;100951.16;;;9.02;100.00
49813;BME280;35706;52.100;5.056;2022-11-25T02:55:41;100960.81;;;9.02;100.00
49813;BME280;35706;52.100;5.056;2022-11-25T02:56:42;100959.63;;;8.94;100.00
49813;BME280;35706;52.100;5.056;2022-11-25T02:57:42;100954.38;;;8.94;100.00
49813;BME280;35706;52.100;5.056;2022-11-25T02:58:42;100967.75;;;8.91;100.00
49813;BME280;35706;52.100;5.056;2022-11-25T02:59:43;100972.13;;;9.02;100.00
49813;BME280;35706;52.100;5.056;2022-11-25T03:00:44;100983.00;;;8.98;100.00
49813;BME280;35706;52.100;5.056;2022-11-25T03:01:44;100973.78;;;9.03;100.00
49813;BME280;35706;52.100;5.056;2022-11-25T03:02:46;100973.94;;;9.02;100.00
49813;BME280;35706;52.100;5.056;2022-11-25T03:03:47;100985.72;;;8.96;100.00
49813;BME280;35706;52.100;5.056;2022-11-25T03:04:47;100970.94;;;8.95;100.00
49813;BME280;35706;52.100;5.056;2022-11-25T03:05:48;100968.69;;;9.02;100.00
49813;BME280;35706;52.100;5.056;2022-11-25T03:06:48;100982.72;;;9.01;100.00
49813;BME280;35706;52.100;5.056;2022-11-25T03:07:49;100970.22;;;8.93;100.00
49813;BME280;35706;52.100;5.056;2022-11-25T03:08:49;100968.47;;;8.93;100.00
49813;BME280;35706;52.100;5.056;2022-11-25T03:09:49;100962.00;;;8.98;100.00
49813;BME280;35706;52.100;5.056;2022-11-25T03:10:50;100974.91;;;8.89;100.00
49813;BME280;35706;52.100;5.056;2022-11-25T03:11:50;100966.78;;;8.92;100.00
49813;BME280;35706;52.100;5.056;2022-11-25T03:13:11;100967.16;;;8.88;100.00
49813;BME280;35706;52.100;5.056;2022-11-25T03:14:11;100961.66;;;8.91;100.00
49813;BME280;35706;52.100;5.056;2022-11-25T03:15:11;100967.47;;;8.94;100.00
49813;BME280;35706;52.100;5.056;2022-11-25T03:16:12;100964.03;;;8.94;100.00
49813;BME280;35706;52.100;5.056;2022-11-25T03:17:13;100971.53;;;8.99;100.00
49813;BME280;35706;52.100;5.056;2022-11-25T03:18:13;100974.88;;;9.01;100.00
49813;BME280;35706;52.100;5.056;2022-11-25T03:19:13;100971.75;;;9.07;100.00
49813;BME280;35706;52.100;5.056;2022-11-25T03:20:14;100970.59;;;9.00;100.00
49813;BME280;35706;52.100;5.056;2022-11-25T03:21:14;100974.41;;;8.95;100.00
49813;BME280;35706;52.100;5.056;2022-11-25T03:22:15;100969.63;;;9.01;100.00
49813;BME280;35706;52.100;5.056;2022-11-25T03:23:15;100972.34;;;8.99;100.00
49813;BME280;35706;52.100;5.056;2022-11-25T03:24:16;100977.97;;;8.94;100.00
49813;BME280;35706;52.100;5.056;2022-11-25T03:25:16;100967.03;;;8.89;100.00
49813;BME280;35706;52.100;5.056;2022-11-25T03:26:16;100963.31;;;8.92;100.00
49813;BME280;35706;52.100;5.056;2022-11-25T03:27:17;100961.03;;;8.99;100.00
49813;BME280;35706;52.100;5.056;2022-11-25T03:28:17;100965.56;;;8.96;100.00
49813;BME280;35706;52.100;5.056;2022-11-25T03:29:17;100965.25;;;8.90;100.00
49813;BME280;35706;52.100;5.056;2022-11-25T03:30:20;100970.59;;;8.88;100.00
49813;BME280;35706;52.100;5.056;2022-11-25T03:31:21;100971.69;;;8.86;100.00
49813;BME280;35706;52.100;5.056;2022-11-25T03:32:21;100975.50;;;8.82;100.00
49813;BME280;35706;52.100;5.056;2022-11-25T03:33:21;100980.50;;;8.85;100.00
49813;BME280;35706;52.100;5.056;2022-11-25T03:34:22;100981.19;;;8.87;100.00
49813;BME280;35706;52.100;5.056;2022-11-25T03:35:22;100981.91;;;8.89;100.00
49813;BME280;35706;52.100;5.056;2022-11-25T03:36:22;100973.47;;;8.85;100.00
49813;BME280;35706;52.100;5.056;2022-11-25T03:37:23;100972.75;;;8.83;100.00
49813;BME280;35706;52.100;5.056;2022-11-25T03:38:23;100981.69;;;8.92;100.00
49813;BME280;35706;52.100;5.056;2022-11-25T03:39:23;100982.50;;;8.92;100.00
49813;BME280;35706;52.100;5.056;2022-11-25T03:40:24;100976.06;;;8.96;100.00
49813;BME280;35706;52.100;5.056;2022-11-25T03:41:24;100988.78;;;9.01;100.00
49813;BME280;35706;52.100;5.056;2022-11-25T03:42:24;100987.75;;;8.92;100.00
49813;BME280;35706;52.100;5.056;2022-11-25T03:43:24;101004.06;;;8.96;100.00
49813;BME280;35706;52.100;5.056;2022-11-25T03:44:25;100999.53;;;8.98;100.00
49813;BME280;35706;52.100;5.056;2022-11-25T03:45:25;100995.63;;;8.92;100.00
49813;BME280;35706;52.100;5.056;2022-11-25T03:46:25;100994.03;;;9.01;100.00
49813;BME280;35706;52.100;5.056;2022-11-25T03:47:25;101001.34;;;8.98;100.00
49813;BME280;35706;52.100;5.056;2022-11-25T03:48:26;101000.41;;;8.87;100.00
49813;BME280;35706;52.100;5.056;2022-11-25T03:49:26;101005.97;;;8.94;100.00
49813;BME280;35706;52.100;5.056;2022-11-25T03:50:26;101002.16;;;8.98;100.00
49813;BME280;35706;52.100;5.056;2022-11-25T03:51:27;101003.47;;;8.92;100.00
49813;BME280;35706;52.100;5.056;2022-11-25T03:52:27;101006.34;;;8.89;100.00
49813;BME280;35706;52.100;5.056;2022-11-25T03:53:27;101005.16;;;8.93;100.00
49813;BME280;35706;52.100;5.056;2022-11-25T03:54:28;101009.53;;;8.93;100.00
49813;BME280;35706;52.100;5.056;2022-11-25T03:55:28;101009.22;;;8.98;100.00
49813;BME280;35706;52.100;5.056;2022-11-25T03:56:28;101020.03;;;8.93;100.00
49813;BME280;35706;52.100;5.056;2022-11-25T03:57:29;101009.69;;;8.91;100.00
49813;BME280;35706;52.100;5.056;2022-11-25T03:58:29;101011.81;;;8.98;100.00
49813;BME280;35706;52.100;5.056;2022-11-25T03:59:29;101009.78;;;8.90;100.00
49813;BME280;35706;52.100;5.056;2022-11-25T04:00:29;101013.84;;;8.94;100.00
49813;BME280;35706;52.100;5.056;2022-11-25T04:01:32;101019.31;;;9.02;99.54
49813;BME280;35706;52.100;5.056;2022-11-25T04:02:32;101021.22;;;9.00;99.24
49813;BME280;35706;52.100;5.056;2022-11-25T04:03:33;101014.34;;;8.88;99.69
49813;BME280;35706;52.100;5.056;2022-11-25T04:04:34;101010.16;;;8.85;99.75
49813;BME280;35706;52.100;5.056;2022-11-25T04:05:34;101015.25;;;8.87;99.52
49813;BME280;35706;52.100;5.056;2022-11-25T04:06:34;101012.75;;;8.96;99.42
49813;BME280;35706;52.100;5.056;2022-11-25T04:07:35;101017.06;;;8.98;99.05
49813;BME280;35706;52.100;5.056;2022-11-25T04:08:35;101023.13;;;8.98;98.70
49813;BME280;35706;52.100;5.056;2022-11-25T04:09:35;101022.78;;;8.91;98.45
49813;BME280;35706;52.100;5.056;2022-11-25T04:10:36;101019.94;;;8.83;99.09
49813;BME280;35706;52.100;5.056;2022-11-25T04:11:36;101025.91;;;8.85;99.23
49813;BME280;35706;52.100;5.056;2022-11-25T04:12:55;101030.06;;;8.76;99.36
49813;BME280;35706;52.100;5.056;2022-11-25T04:13:56;101029.47;;;8.84;99.16
49813;BME280;35706;52.100;5.056;2022-11-25T04:14:56;101022.19;;;8.88;98.78
49813;BME280;35706;52.100;5.056;2022-11-25T04:15:56;101024.44;;;8.92;98.67
49813;BME280;35706;52.100;5.056;2022-11-25T04:16:57;101026.00;;;8.84;98.67
49813;BME280;35706;52.100;5.056;2022-11-25T04:17:57;101024.94;;;8.86;98.83
49813;BME280;35706;52.100;5.056;2022-11-25T04:18:57;101028.50;;;8.85;98.79
49813;BME280;35706;52.100;5.056;2022-11-25T04:19:57;101026.72;;;8.86;98.31
49813;BME280;35706;52.100;5.056;2022-11-25T04:20:58;101037.47;;;8.83;98.75
49813;BME280;35706;52.100;5.056;2022-11-25T04:21:58;101033.25;;;8.80;98.64
49813;BME280;35706;52.100;5.056;2022-11-25T04:23:00;101030.66;;;8.80;98.53
49813;BME280;35706;52.100;5.056;2022-11-25T04:24:00;101034.13;;;8.81;98.47
49813;BME280;35706;52.100;5.056;2022-11-25T04:25:01;101038.28;;;8.72;98.61
49813;BME280;35706;52.100;5.056;2022-11-25T04:26:01;101034.00;;;8.71;98.88
49813;BME280;35706;52.100;5.056;2022-11-25T04:27:01;101038.50;;;8.80;98.71
49813;BME280;35706;52.100;5.056;2022-11-25T04:28:02;101038.19;;;8.85;98.09
49813;BME280;35706;52.100;5.056;2022-11-25T04:29:03;101037.78;;;8.78;98.49
49813;BME280;35706;52.100;5.056;2022-11-25T04:30:04;101039.25;;;8.93;97.98
49813;BME280;35706;52.100;5.056;2022-11-25T04:31:06;101045.44;;;8.81;98.05
49813;BME280;35706;52.100;5.056;2022-11-25T04:32:07;101040.31;;;8.80;97.96
49813;BME280;35706;52.100;5.056;2022-11-25T04:33:07;101050.19;;;8.76;97.99
49813;BME280;35706;52.100;5.056;2022-11-25T04:34:07;101043.50;;;8.72;98.27
49813;BME280;35706;52.100;5.056;2022-11-25T04:35:08;101040.56;;;8.76;98.39
49813;BME280;35706;52.100;5.056;2022-11-25T04:36:08;101047.81;;;8.84;97.75
49813;BME280;35706;52.100;5.056;2022-11-25T04:37:09;101043.50;;;8.72;98.25
49813;BME280;35706;52.100;5.056;2022-11-25T04:38:09;101047.94;;;8.71;98.30
49813;BME280;35706;52.100;5.056;2022-11-25T04:39:10;101054.72;;;8.63;98.43
49813;BME280;35706;52.100;5.056;2022-11-25T04:40:10;101036.97;;;8.66;98.70
49813;BME280;35706;52.100;5.056;2022-11-25T04:41:10;101042.94;;;8.80;97.82
49813;BME280;35706;52.100;5.056;2022-11-25T04:42:11;101050.31;;;8.74;98.17
49813;BME280;35706;52.100;5.056;2022-11-25T04:43:30;101049.72;;;8.71;97.89
49813;BME280;35706;52.100;5.056;2022-11-25T04:44:30;101051.00;;;8.65;98.29
49813;BME280;35706;52.100;5.056;2022-11-25T04:45:30;101051.03;;;8.54;98.55
49813;BME280;35706;52.100;5.056;2022-11-25T04:46:36;101059.94;;;8.63;98.39
49813;BME280;35706;52.100;5.056;2022-11-25T04:47:38;101052.22;;;8.50;98.86
49813;BME280;35706;52.100;5.056;2022-11-25T04:48:39;101067.94;;;8.50;98.97
49813;BME280;35706;52.100;5.056;2022-11-25T04:49:39;101075.88;;;8.48;98.79
49813;BME280;35706;52.100;5.056;2022-11-25T04:50:39;101067.72;;;8.53;98.29
49813;BME280;35706;52.100;5.056;2022-11-25T04:51:39;101071.88;;;8.55;98.59
49813;BME280;35706;52.100;5.056;2022-11-25T04:52:40;101071.97;;;8.54;98.01
49813;BME280;35706;52.100;5.056;2022-11-25T04:53:40;101081.16;;;8.60;97.79
49813;BME280;35706;52.100;5.056;2022-11-25T04:54:40;101079.22;;;8.50;98.17
49813;BME280;35706;52.100;5.056;2022-11-25T04:55:41;101080.31;;;8.48;98.17
49813;BME280;35706;52.100;5.056;2022-11-25T04:56:41;101075.59;;;8.40;98.63
49813;BME280;35706;52.100;5.056;2022-11-25T04:57:41;101068.50;;;8.42;98.58
49813;BME280;35706;52.100;5.056;2022-11-25T04:58:42;101078.03;;;8.43;98.37
49813;BME280;35706;52.100;5.056;2022-11-25T05:00:01;101084.66;;;8.36;98.65
49813;BME280;35706;52.100;5.056;2022-11-25T05:01:02;101078.03;;;8.54;97.88
49813;BME280;35706;52.100;5.056;2022-11-25T05:02:02;101082.19;;;8.46;97.98
49813;BME280;35706;52.100;5.056;2022-11-25T05:03:03;101084.53;;;8.38;98.21
49813;BME280;35706;52.100;5.056;2022-11-25T05:04:03;101076.59;;;8.50;97.86
49813;BME280;35706;52.100;5.056;2022-11-25T05:05:04;101084.38;;;8.52;97.53
49813;BME280;35706;52.100;5.056;2022-11-25T05:06:06;101095.91;;;8.49;97.31
49813;BME280;35706;52.100;5.056;2022-11-25T05:07:07;101092.94;;;8.65;96.86
49813;BME280;35706;52.100;5.056;2022-11-25T05:08:07;101093.03;;;8.52;96.95
49813;BME280;35706;52.100;5.056;2022-11-25T05:09:07;101102.03;;;8.37;97.28
49813;BME280;35706;52.100;5.056;2022-11-25T05:10:10;101094.69;;;8.42;97.64
49813;BME280;35706;52.100;5.056;2022-11-25T05:11:10;101105.78;;;8.57;96.93
49813;BME280;35706;52.100;5.056;2022-11-25T05:12:19;101091.97;;;8.44;96.88
49813;BME280;35706;52.100;5.056;2022-11-25T05:13:20;101103.13;;;8.34;97.39
49813;BME280;35706;52.100;5.056;2022-11-25T05:14:20;101106.44;;;8.36;97.48
49813;BME280;35706;52.100;5.056;2022-11-25T05:15:22;101103.16;;;8.46;97.12
49813;BME280;35706;52.100;5.056;2022-11-25T05:16:23;101101.03;;;8.51;96.69
49813;BME280;35706;52.100;5.056;2022-11-25T05:17:26;101092.94;;;8.43;96.75
49813;BME280;35706;52.100;5.056;2022-11-25T05:18:27;101099.66;;;8.34;97.26
49813;BME280;35706;52.100;5.056;2022-11-25T05:19:27;101092.06;;;8.42;97.24
49813;BME280;35706;52.100;5.056;2022-11-25T05:20:27;101106.50;;;8.48;96.59
49813;BME280;35706;52.100;5.056;2022-11-25T05:21:28;101112.56;;;8.48;96.64
49813;BME280;35706;52.100;5.056;2022-11-25T05:22:29;101108.34;;;8.34;96.82
49813;BME280;35706;52.100;5.056;2022-11-25T05:23:30;101109.47;;;8.43;96.85
49813;BME280;35706;52.100;5.056;2022-11-25T05:24:30;101114.19;;;8.38;96.71
49813;BME280;35706;52.100;5.056;2022-11-25T05:25:30;101112.16;;;8.30;97.20
49813;BME280;35706;52.100;5.056;2022-11-25T05:26:31;101106.91;;;8.30;97.45
49813;BME280;35706;52.100;5.056;2022-11-25T05:27:31;101114.19;;;8.38;96.73